createdAt,value
2022-10-26T00:00:32.737Z,100901.19
2022-10-26T00:03:24.611Z,100905.27
2022-10-26T00:05:56.614Z,100905.02
2022-10-26T00:08:28.843Z,100907.74
2022-10-26T00:11:01.426Z,100915.10
2022-10-26T00:13:34.123Z,100912.92
2022-10-26T00:16:11.726Z,100916.14
2022-10-26T00:18:44.641Z,100915.62
2022-10-26T00:21:17.263Z,100924.60
2022-10-26T00:23:49.321Z,100923.91
2022-10-26T00:26:21.515Z,100930.12
2022-10-26T00:28:55.814Z,100916.12
2022-10-26T00:31:27.838Z,100929.23
2022-10-26T00:34:00.461Z,100931.68
2022-10-26T00:36:32.687Z,100936.02
2022-10-26T00:39:04.684Z,100924.86
2022-10-26T00:41:37.242Z,100937.45
2022-10-26T00:44:38.927Z,100937.49
2022-10-26T00:47:14.623Z,100934.86
2022-10-26T00:49:49.774Z,100931.50
2022-10-26T00:52:23.066Z,100928.45
2022-10-26T00:54:55.293Z,100926.13
2022-10-26T00:57:28.697Z,100926.87
2022-10-26T01:00:01.759Z,100929.16
2022-10-26T01:02:34.390Z,100927.91
2022-10-26T01:05:08.426Z,100924.85
2022-10-26T01:07:41.402Z,100923.80
2022-10-26T01:10:14.087Z,100923.14
2022-10-26T01:12:46.974Z,100922.55
2022-10-26T01:15:19.251Z,100928.70
2022-10-26T01:17:58.906Z,100927.73
2022-10-26T01:20:53.745Z,100927.94
2022-10-26T01:23:33.240Z,100925.34
2022-10-26T01:26:33.025Z,100930.97
2022-10-26T01:29:31.389Z,100931.77
2022-10-26T01:32:10.438Z,100933.16
2022-10-26T01:34:48.009Z,100929.55
2022-10-26T01:37:25.670Z,100927.47
2022-10-26T01:40:03.568Z,100928.10
2022-10-26T01:42:40.862Z,100930.84
2022-10-26T01:45:16.044Z,100930.63
2022-10-26T01:47:50.501Z,100926.98
2022-10-26T01:50:24.426Z,100925.66
2022-10-26T01:52:56.793Z,100919.90
2022-10-26T01:55:52.516Z,100923.02
2022-10-26T01:58:44.260Z,100922.29
2022-10-26T02:01:32.522Z,100927.80
2022-10-26T02:04:14.175Z,100922.54
2022-10-26T02:06:55.862Z,100919.86
2022-10-26T02:09:39.653Z,100916.56
2022-10-26T02:12:21.640Z,100914.50
2022-10-26T02:14:59.519Z,100913.57
2022-10-26T02:17:35.743Z,100914.14
2022-10-26T02:20:15.282Z,100912.20
2022-10-26T02:22:51.636Z,100913.73
2022-10-26T02:25:28.531Z,100919.55
2022-10-26T02:28:05.920Z,100913.22
2022-10-26T02:30:40.043Z,100914.36
2022-10-26T02:33:14.997Z,100916.05
2022-10-26T02:35:51.890Z,100916.15
2022-10-26T02:38:24.897Z,100915.88
2022-10-26T02:40:58.007Z,100919.33
2022-10-26T02:46:13.902Z,100912.55
2022-10-26T02:48:46.019Z,100912.58
2022-10-26T02:51:25.541Z,100916.75
2022-10-26T02:54:04.310Z,100920.23
2022-10-26T02:56:41.491Z,100917.56
2022-10-26T02:59:16.271Z,100931.89
2022-10-26T03:01:47.366Z,100934.58
2022-10-26T03:04:20.174Z,100939.13
2022-10-26T03:06:56.376Z,100941.35
2022-10-26T03:09:28.973Z,100945.32
2022-10-26T03:12:00.904Z,100946.63
2022-10-26T03:14:32.890Z,100947.02
2022-10-26T03:17:05.077Z,100945.86
2022-10-26T03:19:37.335Z,100945.59
2022-10-26T03:22:09.459Z,100947.00
2022-10-26T03:24:41.530Z,100946.27
2022-10-26T03:27:13.676Z,100944.79
2022-10-26T03:29:45.692Z,100948.98
2022-10-26T03:32:17.887Z,100951.13
2022-10-26T03:34:50.363Z,100950.91
2022-10-26T03:37:22.313Z,100950.03
2022-10-26T03:39:54.763Z,100948.13
2022-10-26T03:42:28.034Z,100949.99
2022-10-26T03:45:00.027Z,100951.36
2022-10-26T03:47:32.983Z,100936.53
2022-10-26T03:52:43.010Z,100949.25
2022-10-26T03:55:15.591Z,100936.45
2022-10-26T03:57:48.334Z,100949.11
2022-10-26T04:00:21.652Z,100949.52
2022-10-26T04:03:00.298Z,100947.77
2022-10-26T04:05:32.591Z,100953.70
2022-10-26T04:08:05.065Z,100952.50
2022-10-26T04:10:39.579Z,100948.55
2022-10-26T04:13:12.490Z,100955.83
2022-10-26T04:15:44.480Z,100957.36
2022-10-26T04:18:16.392Z,100952.45
2022-10-26T04:20:48.335Z,100955.27
2022-10-26T04:23:21.177Z,100936.61
2022-10-26T04:25:53.568Z,100951.65
2022-10-26T04:28:25.897Z,100955.38
2022-10-26T04:30:57.835Z,100950.19
2022-10-26T04:33:33.610Z,100954.64
2022-10-26T04:36:06.091Z,100954.52
2022-10-26T04:38:38.169Z,100955.48
2022-10-26T04:41:10.258Z,100958.33
2022-10-26T04:43:42.149Z,100959.63
2022-10-26T04:46:16.739Z,100960.16
2022-10-26T04:48:48.629Z,100955.13
2022-10-26T04:51:20.769Z,100956.51
2022-10-26T04:53:54.364Z,100958.07
2022-10-26T04:56:26.817Z,100959.13
2022-10-26T04:58:59.062Z,100957.78
2022-10-26T05:01:31.799Z,100955.33
2022-10-26T05:04:06.461Z,100955.41
2022-10-26T05:06:38.675Z,100961.98
2022-10-26T05:09:10.855Z,100956.90
2022-10-26T05:11:42.991Z,100965.08
2022-10-26T05:14:14.944Z,100969.13
2022-10-26T05:16:46.928Z,100970.47
2022-10-26T05:19:18.947Z,100969.73
2022-10-26T05:21:53.331Z,100962.77
2022-10-26T05:24:25.577Z,100973.95
2022-10-26T05:27:02.237Z,100970.52
2022-10-26T05:29:34.837Z,100972.75
2022-10-26T05:32:07.469Z,100972.44
2022-10-26T05:34:41.505Z,100973.61
2022-10-26T05:37:13.980Z,100975.84
2022-10-26T05:39:46.237Z,100975.64
2022-10-26T05:42:18.269Z,100975.83
2022-10-26T05:44:50.445Z,100978.29
2022-10-26T05:47:22.388Z,100982.41
2022-10-26T05:49:54.474Z,100980.55
2022-10-26T05:52:26.718Z,100978.83
2022-10-26T05:55:02.245Z,100977.48
2022-10-26T05:57:35.505Z,100988.81
2022-10-26T06:00:16.437Z,100992.23
2022-10-26T06:03:02.917Z,100998.76
2022-10-26T06:05:39.068Z,100997.70
2022-10-26T06:08:13.393Z,101001.30
2022-10-26T06:10:46.348Z,101004.86
2022-10-26T06:13:19.579Z,101007.67
2022-10-26T06:16:04.172Z,101009.02
2022-10-26T06:18:48.404Z,101011.16
2022-10-26T06:21:36.123Z,101007.91
2022-10-26T06:24:15.485Z,101013.96
2022-10-26T06:26:54.682Z,101021.33
2022-10-26T06:29:39.097Z,101022.56
2022-10-26T06:32:12.617Z,101026.79
2022-10-26T06:34:50.352Z,101030.69
2022-10-26T06:37:23.264Z,101015.59
2022-10-26T06:39:57.093Z,101027.52
2022-10-26T06:42:31.089Z,101034.21
2022-10-26T06:45:04.337Z,101032.20
2022-10-26T06:47:42.932Z,101021.56
2022-10-26T06:50:30.208Z,101031.64
2022-10-26T06:53:17.409Z,101036.30
2022-10-26T06:55:51.586Z,101036.09
2022-10-26T06:58:27.019Z,101041.40
2022-10-26T07:00:59.598Z,101038.20
2022-10-26T07:03:31.919Z,101048.64
2022-10-26T07:06:03.991Z,101054.95
2022-10-26T07:08:36.212Z,101053.14
2022-10-26T07:11:09.457Z,101048.75
2022-10-26T07:13:41.765Z,101052.64
2022-10-26T07:16:13.830Z,101052.83
2022-10-26T07:18:45.770Z,101039.88
2022-10-26T07:21:18.040Z,101054.05
2022-10-26T07:23:50.017Z,101059.06
2022-10-26T07:26:22.106Z,101060.23
2022-10-26T07:28:54.556Z,101057.52
2022-10-26T07:31:26.738Z,101066.47
2022-10-26T07:33:59.162Z,101060.79
2022-10-26T07:36:32.254Z,101064.05
2022-10-26T07:39:04.474Z,101065.92
2022-10-26T07:41:37.195Z,101067.66
2022-10-26T07:44:09.513Z,101063.02
2022-10-26T07:46:41.893Z,101061.65
2022-10-26T07:49:16.352Z,101064.79
2022-10-26T07:51:51.525Z,101069.25
2022-10-26T07:54:23.798Z,101072.15
2022-10-26T07:56:56.099Z,101068.13
2022-10-26T07:59:28.358Z,101068.87
2022-10-26T08:02:00.552Z,101074.60
2022-10-26T08:04:32.807Z,101078.27
2022-10-26T08:07:04.826Z,101081.91
2022-10-26T08:09:37.270Z,101075.33
2022-10-26T08:12:10.089Z,101078.44
2022-10-26T08:14:42.037Z,101080.58
2022-10-26T08:17:14.108Z,101084.48
2022-10-26T08:19:48.441Z,101084.38
2022-10-26T08:22:20.473Z,101077.46
2022-10-26T08:24:52.495Z,101086.21
2022-10-26T08:27:24.549Z,101084.46
2022-10-26T08:29:56.971Z,101091.00
2022-10-26T08:32:29.211Z,101089.77
2022-10-26T08:35:01.368Z,101085.54
2022-10-26T08:37:33.672Z,101089.50
2022-10-26T08:40:07.074Z,101092.73
2022-10-26T08:42:45.096Z,101088.10
2022-10-26T08:45:30.627Z,101091.87
2022-10-26T08:48:11.068Z,101090.35
2022-10-26T08:50:48.330Z,101083.27
2022-10-26T08:53:28.204Z,101078.22
2022-10-26T08:56:05.816Z,101082.20
2022-10-26T08:58:44.026Z,101077.66
2022-10-26T09:01:16.699Z,101074.73
2022-10-26T09:03:48.942Z,101073.20
2022-10-26T09:06:32.149Z,101072.24
2022-10-26T09:09:10.756Z,101074.23
2022-10-26T09:11:58.112Z,101077.98
2022-10-26T09:14:42.375Z,101075.91
2022-10-26T09:17:23.961Z,101077.13
2022-10-26T09:20:26.801Z,101076.59
2022-10-26T09:23:05.886Z,101081.77
2022-10-26T09:25:42.392Z,101082.91
2022-10-26T09:28:18.680Z,101084.22
2022-10-26T09:30:51.790Z,101092.14
2022-10-26T09:33:26.606Z,101089.59
2022-10-26T09:36:02.492Z,101091.63
2022-10-26T09:38:37.997Z,101092.80
2022-10-26T09:41:24.430Z,101085.88
2022-10-26T09:44:03.014Z,101093.86
2022-10-26T09:46:45.915Z,101092.56
2022-10-26T09:49:19.538Z,101095.36
2022-10-26T09:51:51.732Z,101096.52
2022-10-26T09:54:24.552Z,101099.11
2022-10-26T09:57:02.221Z,101101.21
2022-10-26T09:59:40.172Z,101097.87
2022-10-26T10:02:40.328Z,101095.72
2022-10-26T10:05:49.836Z,101096.79
2022-10-26T10:08:22.191Z,101097.18
2022-10-26T10:11:00.723Z,101100.39
2022-10-26T10:13:34.870Z,101104.05
2022-10-26T10:16:11.375Z,101101.77
2022-10-26T10:18:53.541Z,101102.14
2022-10-26T10:21:37.387Z,101095.93
2022-10-26T10:24:26.234Z,101093.23
2022-10-26T10:27:06.696Z,101094.39
2022-10-26T10:29:44.358Z,101094.02
2022-10-26T10:32:20.811Z,101097.60
2022-10-26T10:34:56.078Z,101094.77
2022-10-26T10:37:32.066Z,101091.17
2022-10-26T10:40:08.371Z,101106.25
2022-10-26T10:42:43.447Z,101105.50
2022-10-26T10:45:20.348Z,101110.30
2022-10-26T10:48:05.559Z,101108.69
2022-10-26T10:50:37.483Z,101110.33
2022-10-26T10:53:23.683Z,101114.02
2022-10-26T10:56:11.519Z,101112.30
2022-10-26T10:58:50.831Z,101114.22
2022-10-26T11:01:27.690Z,101102.59
2022-10-26T11:04:17.768Z,101112.54
2022-10-26T11:06:52.352Z,101117.92
2022-10-26T11:09:28.975Z,101119.09
2022-10-26T11:12:10.062Z,101117.78
2022-10-26T11:14:48.933Z,101117.66
2022-10-26T11:17:25.777Z,101122.09
2022-10-26T11:20:02.580Z,101120.05
2022-10-26T11:22:40.432Z,101119.95
2022-10-26T11:25:19.311Z,101118.56
2022-10-26T11:27:55.610Z,101115.42
2022-10-26T11:30:34.953Z,101114.98
2022-10-26T11:33:13.672Z,101117.92
2022-10-26T11:35:55.142Z,101124.41
2022-10-26T11:38:45.983Z,101123.02
2022-10-26T11:41:31.946Z,101111.36
2022-10-26T11:44:12.684Z,101121.58
2022-10-26T11:46:49.096Z,101117.92
2022-10-26T11:49:27.510Z,101114.96
2022-10-26T11:52:05.246Z,101113.30
2022-10-26T11:54:45.107Z,101112.90
2022-10-26T11:57:17.833Z,101116.77
2022-10-26T11:59:54.280Z,101112.16
2022-10-26T12:02:27.622Z,101112.81
2022-10-26T12:05:06.526Z,101110.96
2022-10-26T12:07:41.774Z,101110.08
2022-10-26T12:10:24.750Z,101106.38
2022-10-26T12:13:08.713Z,101112.23
2022-10-26T12:16:04.308Z,101112.17
2022-10-26T12:18:55.895Z,101111.13
2022-10-26T12:21:30.650Z,101110.89
2022-10-26T12:24:23.912Z,101111.61
2022-10-26T12:26:57.718Z,101114.58
2022-10-26T12:29:49.398Z,101112.00
2022-10-26T12:32:54.947Z,101110.89
2022-10-26T12:35:43.933Z,101106.95
2022-10-26T12:39:01.050Z,101108.39
2022-10-26T12:41:33.306Z,101094.32
2022-10-26T12:44:34.664Z,101104.60
2022-10-26T12:47:07.755Z,101107.73
2022-10-26T12:50:02.682Z,101104.61
2022-10-26T12:52:53.957Z,101104.91
2022-10-26T12:56:05.303Z,101109.27
2022-10-26T12:59:17.239Z,101107.95
2022-10-26T13:02:16.387Z,101104.41
2022-10-26T13:05:30.621Z,101102.17
2022-10-26T13:08:07.463Z,101103.95
2022-10-26T13:10:46.039Z,101100.96
2022-10-26T13:13:25.723Z,101097.27
2022-10-26T13:15:59.239Z,101090.91
2022-10-26T13:18:32.505Z,101090.19
2022-10-26T13:21:09.284Z,101089.63
2022-10-26T13:23:46.375Z,101089.11
2022-10-26T13:26:20.274Z,101088.31
2022-10-26T13:28:55.080Z,101076.03
2022-10-26T13:31:43.123Z,101090.59
2022-10-26T13:34:19.740Z,101090.26
2022-10-26T13:36:59.566Z,101089.22
2022-10-26T13:39:37.199Z,101093.09
2022-10-26T13:42:16.613Z,101091.87
2022-10-26T13:44:54.648Z,101095.08
2022-10-26T13:47:31.514Z,101093.23
2022-10-26T13:50:08.800Z,101091.20
2022-10-26T13:52:44.549Z,101095.89
2022-10-26T13:55:24.572Z,101092.84
2022-10-26T13:58:14.221Z,101094.20
2022-10-26T14:01:03.831Z,101087.24
2022-10-26T14:03:35.913Z,101089.70
2022-10-26T14:06:23.675Z,101080.14
2022-10-26T14:08:58.800Z,101093.59
2022-10-26T14:11:36.231Z,101093.42
2022-10-26T14:14:14.307Z,101093.42
2022-10-26T14:16:48.166Z,101089.20
2022-10-26T14:19:26.050Z,101091.17
2022-10-26T14:21:59.280Z,101089.46
2022-10-26T14:24:46.673Z,101087.21
2022-10-26T14:27:21.136Z,101092.38
2022-10-26T14:30:21.020Z,101096.11
2022-10-26T14:32:47.984Z,101092.92
2022-10-26T14:35:23.331Z,101094.39
2022-10-26T14:38:01.108Z,101092.14
2022-10-26T14:40:35.835Z,101096.25
2022-10-26T14:43:09.371Z,101094.80
2022-10-26T14:45:49.692Z,101092.20
2022-10-26T14:48:30.071Z,101094.45
2022-10-26T14:51:09.520Z,101095.96
2022-10-26T14:53:48.729Z,101101.34
2022-10-26T14:56:26.600Z,101083.08
2022-10-26T14:59:00.359Z,101104.05
2022-10-26T15:01:48.275Z,101103.15
2022-10-26T15:04:32.091Z,101098.56
2022-10-26T15:07:17.341Z,101099.67
2022-10-26T15:09:51.000Z,101102.64
2022-10-26T15:12:36.234Z,101102.45
2022-10-26T15:15:23.595Z,101106.52
2022-10-26T15:17:59.759Z,101102.02
2022-10-26T15:20:32.850Z,101080.39
2022-10-26T15:23:05.747Z,101102.77
2022-10-26T15:25:38.173Z,101106.43
2022-10-26T15:28:23.094Z,101107.17
2022-10-26T15:31:07.376Z,101106.88
2022-10-26T15:33:41.416Z,101105.64
2022-10-26T15:36:17.204Z,101109.88
2022-10-26T15:38:49.968Z,101115.14
2022-10-26T15:41:26.581Z,101117.17
2022-10-26T15:44:01.471Z,101112.73
2022-10-26T15:46:35.920Z,101115.58
2022-10-26T15:49:15.108Z,101115.52
2022-10-26T15:51:49.306Z,101120.14
2022-10-26T15:54:21.458Z,101120.58
2022-10-26T15:56:53.726Z,101121.18
2022-10-26T15:59:26.051Z,101127.64
2022-10-26T16:01:58.342Z,101133.72
2022-10-26T16:04:30.537Z,101124.13
2022-10-26T16:07:05.897Z,101140.38
2022-10-26T16:09:38.434Z,101134.10
2022-10-26T16:12:12.330Z,101140.92
2022-10-26T16:15:04.236Z,101135.96
2022-10-26T16:17:36.903Z,101144.34
2022-10-26T16:20:13.675Z,101142.36
2022-10-26T16:22:48.505Z,101145.48
2022-10-26T16:25:20.185Z,101147.23
2022-10-26T16:27:52.984Z,101148.21
2022-10-26T16:30:30.265Z,101152.80
2022-10-26T16:33:02.915Z,101151.86
2022-10-26T16:35:35.226Z,101155.47
2022-10-26T16:38:07.258Z,101156.68
2022-10-26T16:40:42.723Z,101154.58
2022-10-26T16:43:14.762Z,101151.77
2022-10-26T16:45:47.651Z,101152.88
2022-10-26T16:48:19.611Z,101152.48
2022-10-26T16:50:51.800Z,101150.96
2022-10-26T16:53:24.562Z,101147.47
2022-10-26T16:56:02.538Z,101145.81
2022-10-26T16:58:37.460Z,101142.70
2022-10-26T17:01:13.153Z,101148.64
2022-10-26T17:03:47.244Z,101137.29
2022-10-26T17:06:20.263Z,101157.27
2022-10-26T17:08:53.101Z,101164.91
2022-10-26T17:11:25.379Z,101167.98
2022-10-26T17:13:57.997Z,101169.63
2022-10-26T17:16:30.761Z,101156.90
2022-10-26T17:19:03.431Z,101172.27
2022-10-26T17:21:37.554Z,101158.73
2022-10-26T17:24:10.778Z,101174.98
2022-10-26T17:26:44.522Z,101176.86
2022-10-26T17:29:19.452Z,101180.35
2022-10-26T17:31:52.933Z,101179.84
2022-10-26T17:34:26.352Z,101182.37
2022-10-26T17:36:59.823Z,101183.67
2022-10-26T17:39:34.833Z,101187.80
2022-10-26T17:42:06.922Z,101193.31
2022-10-26T17:44:40.657Z,101193.70
2022-10-26T17:47:15.653Z,101194.70
2022-10-26T17:49:49.062Z,101193.83
2022-10-26T17:52:24.829Z,101201.88
2022-10-26T17:55:01.773Z,101198.84
2022-10-26T17:57:37.813Z,101200.52
2022-10-26T18:00:14.617Z,101205.80
2022-10-26T18:02:48.071Z,101207.40
2022-10-26T18:05:23.937Z,101208.84
2022-10-26T18:07:58.159Z,101209.42
2022-10-26T18:10:37.857Z,101212.77
2022-10-26T18:13:15.542Z,101207.69
2022-10-26T18:15:49.281Z,101218.93
2022-10-26T18:18:23.141Z,101213.85
2022-10-26T18:21:01.190Z,101209.19
2022-10-26T18:23:34.919Z,101213.86
2022-10-26T18:26:13.074Z,101214.15
2022-10-26T18:28:48.049Z,101212.77
2022-10-26T18:31:26.375Z,101219.96
2022-10-26T18:34:02.559Z,101223.95
2022-10-26T18:39:15.051Z,101233.34
2022-10-26T18:41:48.495Z,101233.46
2022-10-26T18:44:22.932Z,101232.39
2022-10-26T18:46:56.611Z,101231.38
2022-10-26T18:49:29.969Z,101236.34
2022-10-26T18:52:04.979Z,101234.45
2022-10-26T18:54:39.419Z,101233.86
2022-10-26T18:57:13.217Z,101232.10
2022-10-26T18:59:46.480Z,101234.00
2022-10-26T19:02:21.129Z,101230.63
2022-10-26T19:04:58.865Z,101231.71
2022-10-26T19:07:32.091Z,101236.33
2022-10-26T19:10:04.695Z,101237.27
2022-10-26T19:12:37.310Z,101236.92
2022-10-26T19:15:10.674Z,101236.37
2022-10-26T19:17:42.805Z,101237.65
2022-10-26T19:20:15.379Z,101246.18
2022-10-26T19:22:48.292Z,101248.86
2022-10-26T19:25:21.328Z,101250.22
2022-10-26T19:27:55.573Z,101257.83
2022-10-26T19:30:27.821Z,101263.98
2022-10-26T19:33:00.458Z,101265.15
2022-10-26T19:35:32.757Z,101270.66
2022-10-26T19:38:05.095Z,101270.58
2022-10-26T19:40:37.132Z,101267.53
2022-10-26T19:43:10.519Z,101270.08
2022-10-26T19:45:42.640Z,101274.77
2022-10-26T19:48:14.650Z,101276.91
2022-10-26T19:50:51.713Z,101279.84
2022-10-26T19:53:24.507Z,101278.85
2022-10-26T19:55:59.565Z,101276.33
2022-10-26T19:58:32.743Z,101275.58
2022-10-26T20:01:05.628Z,101281.14
2022-10-26T20:03:38.375Z,101288.40
2022-10-26T20:06:13.066Z,101290.91
2022-10-26T20:08:47.148Z,101298.45
2022-10-26T20:11:19.999Z,101277.57
2022-10-26T20:13:52.803Z,101302.70
2022-10-26T20:16:25.443Z,101302.48
2022-10-26T20:18:57.804Z,101305.14
2022-10-26T20:21:29.788Z,101306.71
2022-10-26T20:24:02.493Z,101306.29
2022-10-26T20:26:35.118Z,101308.89
2022-10-26T20:29:07.311Z,101309.41
2022-10-26T20:31:39.682Z,101307.01
2022-10-26T20:34:12.302Z,101309.08
2022-10-26T20:36:44.779Z,101306.41
2022-10-26T20:39:18.674Z,101310.88
2022-10-26T20:41:51.641Z,101312.70
2022-10-26T20:44:31.459Z,101317.40
2022-10-26T20:47:04.415Z,101314.38
2022-10-26T20:49:37.829Z,101322.39
2022-10-26T20:52:21.040Z,101320.55
2022-10-26T20:55:02.059Z,101321.33
2022-10-26T20:57:36.874Z,101316.56
2022-10-26T21:00:09.613Z,101317.27
2022-10-26T21:02:42.793Z,101314.96
2022-10-26T21:05:16.051Z,101318.39
2022-10-26T21:07:48.329Z,101319.45
2022-10-26T21:10:20.586Z,101320.30
2022-10-26T21:12:52.959Z,101318.63
2022-10-26T21:15:25.203Z,101313.64
2022-10-26T21:17:57.407Z,101297.63
2022-10-26T21:20:29.598Z,101314.63
2022-10-26T21:23:01.658Z,101317.79
2022-10-26T21:25:33.703Z,101318.70
2022-10-26T21:28:06.937Z,101328.83
2022-10-26T21:30:39.059Z,101314.65
2022-10-26T21:33:11.255Z,101329.16
2022-10-26T21:35:43.495Z,101329.91
2022-10-26T21:38:15.580Z,101315.73
2022-10-26T21:40:47.966Z,101327.39
2022-10-26T21:43:19.914Z,101327.21
2022-10-26T21:45:59.272Z,101323.11
2022-10-26T21:48:32.541Z,101319.30
2022-10-26T21:51:05.949Z,101325.19
2022-10-26T21:53:37.965Z,101329.23
2022-10-26T21:56:13.296Z,101327.62
2022-10-26T21:58:45.585Z,101330.10
2022-10-26T22:01:19.288Z,101330.28
2022-10-26T22:03:52.030Z,101327.84
2022-10-26T22:06:26.817Z,101320.39
2022-10-26T22:08:59.027Z,101320.33
2022-10-26T22:11:31.586Z,101319.39
2022-10-26T22:14:04.119Z,101320.78
2022-10-26T22:16:36.261Z,101324.31
2022-10-26T22:19:10.112Z,101327.35
2022-10-26T22:21:43.484Z,101319.27
2022-10-26T22:24:15.555Z,101331.02
2022-10-26T22:26:47.490Z,101328.95
2022-10-26T22:29:19.746Z,101327.02
2022-10-26T22:31:52.263Z,101327.58
2022-10-26T22:34:24.482Z,101330.49
2022-10-26T22:36:56.948Z,101331.92
2022-10-26T22:39:29.134Z,101331.08
2022-10-26T22:42:01.992Z,101315.92
2022-10-26T22:44:34.233Z,101332.66
2022-10-26T22:47:06.622Z,101338.62
2022-10-26T22:49:38.572Z,101340.41
2022-10-26T22:52:10.740Z,101340.77
2022-10-26T22:54:42.917Z,101339.49
2022-10-26T22:57:14.879Z,101341.69
2022-10-26T22:59:46.782Z,101342.61
2022-10-26T23:02:18.889Z,101349.48
2022-10-26T23:04:51.031Z,101350.95
2022-10-26T23:07:26.339Z,101351.58
2022-10-26T23:09:59.161Z,101354.14
2022-10-26T23:12:31.455Z,101358.77
2022-10-26T23:15:03.696Z,101357.38
2022-10-26T23:17:36.550Z,101359.30
2022-10-26T23:20:11.118Z,101357.29
2022-10-26T23:22:43.072Z,101358.30
2022-10-26T23:25:15.704Z,101354.38
2022-10-26T23:27:47.666Z,101352.64
2022-10-26T23:30:20.104Z,101356.14
2022-10-26T23:32:52.429Z,101355.19
2022-10-26T23:35:25.033Z,101353.48
2022-10-26T23:37:59.772Z,101352.23
2022-10-26T23:40:32.345Z,101352.42
2022-10-26T23:43:04.948Z,101355.81
2022-10-26T23:45:37.059Z,101365.14
2022-10-26T23:48:11.048Z,101368.04
2022-10-26T23:50:44.714Z,101365.16
2022-10-26T23:53:18.651Z,101359.76
2022-10-26T23:55:51.192Z,101359.45
2022-10-26T23:58:23.301Z,101358.16
